Time;durP1;ratioP1;P1;durP2;ratioP2;P2;SDS_P1;SDS_P2;PMS_P1;PMS_P2;Temp;Humidity;BMP_temperature;BMP_pressure;BME280_temperature;BME280_humidity;BME280_pressure;Samples;Min_cycle;Max_cycle;Signal;HPM_P1;HPM_P2
2023/02/20 00:00:29;;;;;;;0.15;0.15;;;;;;;7.94;86.51;101325.56;5007156;28;20030;-76
2023/02/20 00:02:55;;;;;;;0.20;0.20;;;;;;;8.12;85.28;101311.78;5009749;28;20042;-76
2023/02/20 00:05:24;;;;;;;0.20;0.20;;;;;;;8.09;85.60;101317.00;5010466;28;20404;-77
2023/02/20 00:07:52;;;;;;;0.20;0.20;;;;;;;7.98;86.63;101308.50;5005839;28;20044;-76
2023/02/20 00:10:18;;;;;;;0.30;0.30;;;;;;;8.16;85.55;101301.19;5008873;28;20472;-76
2023/02/20 00:12:44;;;;;;;0.20;0.20;;;;;;;8.11;85.90;101282.56;5010340;28;20451;-77
2023/02/20 00:15:13;;;;;;;0.20;0.20;;;;;;;7.98;86.71;101275.53;5010152;28;20061;-76
2023/02/20 00:17:41;;;;;;;0.30;0.30;;;;;;;7.98;86.96;101283.59;5003280;28;20072;-77
2023/02/20 00:20:07;;;;;;;0.20;0.20;;;;;;;8.27;85.30;101280.97;5006490;28;20026;-77
2023/02/20 00:22:33;;;;;;;0.40;0.40;;;;;;;8.17;85.89;101275.94;5010600;28;20061;-77
2023/02/20 00:24:58;;;;;;;0.20;0.20;;;;;;;7.85;87.27;101268.50;5011479;28;20041;-76
2023/02/20 00:27:24;;;;;;;0.20;0.20;;;;;;;7.86;88.05;101253.97;5008474;28;20038;-77
2023/02/20 00:29:50;;;;;;;0.20;0.20;;;;;;;8.01;87.84;101246.19;5006995;28;20025;-77
2023/02/20 00:32:15;;;;;;;0.32;0.32;;;;;;;7.88;88.05;101243.72;5010003;28;20508;-77
2023/02/20 00:34:41;;;;;;;0.30;0.30;;;;;;;8.14;86.99;101239.03;5010353;28;20037;-77
2023/02/20 00:37:07;;;;;;;0.20;0.20;;;;;;;8.19;86.99;101222.75;5003409;28;20030;-76
2023/02/20 00:39:33;;;;;;;0.70;0.47;;;;;;;8.15;86.73;101216.44;4993896;28;20046;-76
2023/02/20 00:41:58;;;;;;;0.73;0.50;;;;;;;8.12;87.16;101198.34;5010291;28;20531;-76
2023/02/20 00:44:25;;;;;;;0.40;0.40;;;;;;;8.21;87.06;101191.00;4997561;28;20437;-76
2023/02/20 00:46:52;;;;;;;0.38;0.38;;;;;;;8.31;86.44;101198.72;5008509;28;20496;-76
2023/02/20 00:49:17;;;;;;;0.30;0.30;;;;;;;7.95;87.59;101188.50;5005657;28;20065;-77
2023/02/20 00:51:46;;;;;;;0.28;0.28;;;;;;;7.99;87.98;101188.63;5010922;28;20026;-77
2023/02/20 00:54:12;;;;;;;0.30;0.30;;;;;;;8.07;87.94;101185.13;5006969;28;20039;-76
2023/02/20 00:56:38;;;;;;;0.20;0.20;;;;;;;8.18;87.14;101164.84;5005923;28;20040;-77
2023/02/20 00:59:03;;;;;;;0.30;0.30;;;;;;;8.25;86.92;101165.13;5005294;28;20029;-77
2023/02/20 01:01:30;;;;;;;0.38;0.38;;;;;;;8.27;87.14;101159.44;5008272;28;20400;-77
2023/02/20 01:03:55;;;;;;;0.70;0.30;;;;;;;8.23;87.56;101159.28;5006400;28;20112;-77
2023/02/20 01:06:21;;;;;;;0.40;0.40;;;;;;;8.44;86.32;101156.66;5000243;28;20068;-77
2023/02/20 01:08:46;;;;;;;0.40;0.40;;;;;;;8.32;86.84;101154.69;5004095;28;20025;-76
2023/02/20 01:11:12;;;;;;;0.50;0.50;;;;;;;8.37;86.79;101154.47;4988522;28;20050;-76
2023/02/20 01:13:38;;;;;;;0.63;0.40;;;;;;;8.37;86.53;101162.53;5003707;28;20034;-77
2023/02/20 01:16:06;;;;;;;0.20;0.20;;;;;;;8.47;86.07;101164.84;5005403;28;20125;-76
2023/02/20 01:18:31;;;;;;;0.30;0.30;;;;;;;8.40;86.61;101155.75;4989322;28;20131;-76
2023/02/20 01:20:57;;;;;;;0.25;0.25;;;;;;;8.47;85.73;101156.00;4988334;28;20041;-77
2023/02/20 01:23:22;;;;;;;0.43;0.43;;;;;;;8.22;87.43;101157.72;5009394;28;20030;-77
2023/02/20 01:25:48;;;;;;;0.20;0.20;;;;;;;8.43;86.67;101155.88;4990356;28;20500;-77
2023/02/20 01:28:13;;;;;;;0.57;0.45;;;;;;;8.43;86.12;101145.13;5005550;28;20026;-77
2023/02/20 01:30:41;;;;;;;0.43;0.43;;;;;;;8.37;86.47;101142.97;5007077;28;20069;-76
2023/02/20 01:33:08;;;;;;;0.68;0.68;;;;;;;8.43;86.43;101145.13;5008517;28;20507;-77
2023/02/20 01:35:34;;;;;;;0.30;0.30;;;;;;;8.45;86.51;101142.13;5007068;28;20056;-77
2023/02/20 01:38:05;;;;;;;0.85;0.85;;;;;;;8.47;86.66;101142.56;5008213;28;20025;-77
2023/02/20 01:40:31;;;;;;;0.15;0.15;;;;;;;8.48;86.60;101133.41;5000375;28;20100;-77
2023/02/20 01:42:59;;;;;;;0.55;0.55;;;;;;;8.41;87.30;101125.09;4985963;28;20362;-77
2023/02/20 01:45:25;;;;;;;0.93;0.55;;;;;;;8.40;87.15;101123.53;5007440;28;20109;-77
2023/02/20 01:47:54;;;;;;;0.20;0.20;;;;;;;8.49;87.17;101116.97;4988167;28;20040;-77
2023/02/20 01:50:24;;;;;;;0.40;0.40;;;;;;;8.36;87.21;101110.00;5000633;28;20112;-79
2023/02/20 01:52:55;;;;;;;0.32;0.30;;;;;;;8.47;87.04;101110.38;5004743;28;20228;-79
2023/02/20 01:55:24;;;;;;;0.25;0.25;;;;;;;8.59;86.60;101103.16;5011857;28;20045;-79
2023/02/20 01:57:59;;;;;;;1.38;1.27;;;;;;;8.47;87.16;101100.44;5009882;28;20124;-79
2023/02/20 02:00:26;;;;;;;0.35;0.35;;;;;;;8.50;87.17;101080.16;5006495;28;20025;-78
2023/02/20 02:03:05;;;;;;;0.50;0.50;;;;;;;8.52;87.09;101069.91;5011528;28;20036;-79
2023/02/20 02:05:33;;;;;;;0.85;0.40;;;;;;;8.47;87.38;101068.22;5009278;28;20033;-79
2023/02/20 02:08:02;;;;;;;0.32;0.32;;;;;;;8.55;87.16;101053.16;5002817;28;20493;-79
2023/02/20 02:10:34;;;;;;;0.40;0.30;;;;;;;8.46;87.30;101047.84;5009001;28;20061;-79
2023/02/20 02:13:00;;;;;;;0.30;0.30;;;;;;;8.59;86.46;101044.13;5013810;28;20132;-79
2023/02/20 02:15:25;;;;;;;0.30;0.30;;;;;;;8.51;87.01;101044.97;5011608;28;20416;-79
2023/02/20 02:17:54;;;;;;;0.30;0.30;;;;;;;8.52;86.91;101030.44;5009595;28;20026;-79
2023/02/20 02:20:57;;;;;;;0.45;0.45;;;;;;;8.59;86.68;101036.06;5012471;28;20034;-79
2023/02/20 02:23:40;;;;;;;0.35;0.35;;;;;;;8.65;86.51;101021.28;5011477;28;20041;-79
2023/02/20 02:26:09;;;;;;;0.30;0.30;;;;;;;8.66;86.48;101014.81;5002873;28;20493;-79
2023/02/20 02:28:53;;;;;;;0.63;0.38;;;;;;;8.64;86.63;101021.63;5013895;28;20392;-79
2023/02/20 02:31:34;;;;;;;0.30;0.30;;;;;;;8.57;87.01;101014.13;4989571;28;20062;-79
2023/02/20 02:34:24;;;;;;;1.05;0.85;;;;;;;8.68;86.74;101015.28;5006499;28;21929;-79
2023/02/20 02:37:18;;;;;;;1.17;0.80;;;;;;;8.66;86.76;101005.97;5012687;28;20474;-79
2023/02/20 02:39:47;;;;;;;0.30;0.30;;;;;;;8.58;87.74;101004.16;5009614;28;20108;-79
2023/02/20 02:42:25;;;;;;;0.20;0.20;;;;;;;8.74;86.98;101005.09;5009699;28;20428;-79
2023/02/20 02:45:16;;;;;;;0.30;0.30;;;;;;;8.74;87.14;101013.16;5001512;28;20030;-77
2023/02/20 02:47:48;;;;;;;;;;;;;;;8.43;89.17;101020.91;5013341;28;20056;-78
2023/02/20 02:50:22;;;;;;;0.38;0.38;;;;;;;8.62;88.62;101010.44;5017299;28;19961;-78
2023/02/20 02:52:50;;;;;;;0.20;0.20;;;;;;;8.47;88.86;101021.81;4988927;28;20034;-78
2023/02/20 02:55:20;;;;;;;0.50;0.50;;;;;;;8.57;88.90;101000.72;4990670;28;20088;-78
2023/02/20 02:57:46;;;;;;;0.85;0.65;;;;;;;8.50;89.68;101000.44;5010180;28;20084;-78
2023/02/20 03:00:23;;;;;;;0.98;0.57;;;;;;;8.46;90.40;100988.06;4990580;28;20034;-78
2023/02/20 03:02:57;;;;;;;1.15;0.70;;;;;;;8.69;89.33;100986.53;5009515;28;20041;-78
2023/02/20 03:05:39;;;;;;;0.45;0.32;;;;;;;8.64;89.92;100968.72;5010633;28;20042;-78
2023/02/20 03:08:30;;;;;;;0.82;0.82;;;;;;;8.70;90.21;100956.66;5007932;28;20030;-77
2023/02/20 03:11:12;;;;;;;0.50;0.50;;;;;;;8.76;89.33;100958.00;4939851;28;20618;-78
2023/02/20 03:16:49;;;;;;;0.30;0.30;;;;;;;8.76;89.96;100954.53;4947981;28;20465;-77
2023/02/20 03:19:23;;;;;;;1.85;0.22;;;;;;;8.77;90.29;100956.88;4950965;28;20031;-78
2023/02/20 03:21:51;;;;;;;0.60;0.60;;;;;;;8.74;90.31;100959.44;4934647;29;20146;-77
2023/02/20 03:24:20;;;;;;;0.55;0.35;;;;;;;8.72;90.68;100969.75;4949284;28;20031;-78
2023/02/20 03:26:48;;;;;;;0.20;0.20;;;;;;;8.66;91.31;100960.34;4930407;29;20126;-78
2023/02/20 03:29:23;;;;;;;0.82;0.80;;;;;;;8.66;91.35;100960.34;4918482;29;20043;-78
2023/02/20 03:45:52;;;;;;;0.40;0.40;;;;;;;8.71;92.55;100944.78;4946904;28;20035;-78
2023/02/20 03:48:29;;;;;;;0.98;0.30;;;;;;;8.77;91.73;100935.41;4976166;28;20052;-78
2023/02/20 03:50:56;;;;;;;0.45;0.45;;;;;;;8.93;91.02;100933.63;5001247;28;20467;-77
2023/02/20 03:53:24;;;;;;;0.70;0.45;;;;;;;8.55;92.82;100927.78;4993184;28;20034;-76
2023/02/20 03:55:50;;;;;;;0.30;0.30;;;;;;;8.71;92.65;100920.63;4987269;28;20485;-77
2023/02/20 03:58:21;;;;;;;0.40;0.40;;;;;;;8.57;92.69;100928.25;5005059;28;20109;-76
2023/02/20 04:00:50;;;;;;;0.28;0.28;;;;;;;8.82;92.05;100929.81;4991162;28;20025;-77
2023/02/20 04:03:21;;;;;;;0.20;0.20;;;;;;;8.73;91.52;100947.91;5006118;28;20061;-76
2023/02/20 04:05:52;;;;;;;0.52;0.50;;;;;;;8.82;91.85;100939.78;4994731;28;20115;-77
2023/02/20 04:08:37;;;;;;;0.47;0.47;;;;;;;8.79;91.55;100946.59;5004191;28;20416;-77
2023/02/20 04:11:15;;;;;;;0.73;0.40;;;;;;;8.85;91.43;100933.72;5009415;28;20049;-77
2023/02/20 04:13:40;;;;;;;0.75;0.75;;;;;;;8.82;91.47;100937.88;5001845;28;20539;-77
2023/02/20 04:16:08;;;;;;;0.60;0.52;;;;;;;8.85;91.05;100920.28;5008570;28;20041;-76
2023/02/20 04:18:34;;;;;;;0.28;0.28;;;;;;;8.74;92.03;100925.34;5008565;28;20378;-77
2023/02/20 04:21:07;;;;;;;0.52;0.50;;;;;;;8.93;90.69;100904.06;4992151;28;20045;-76
2023/02/20 04:23:40;;;;;;;0.55;0.55;;;;;;;8.88;90.66;100904.28;5002325;28;20088;-76
2023/02/20 04:26:17;;;;;;;0.57;0.57;;;;;;;8.73;91.40;100896.91;5007650;28;20124;-76
2023/02/20 04:28:45;;;;;;;0.20;0.20;;;;;;;8.78;91.63;100893.22;5010386;28;20635;-77
2023/02/20 04:31:16;;;;;;;0.43;0.43;;;;;;;8.84;90.88;100886.53;4987872;28;20033;-77
2023/02/20 04:33:41;;;;;;;0.60;0.60;;;;;;;8.84;90.76;100879.25;4997562;28;20042;-76
2023/02/20 04:36:12;;;;;;;0.73;0.65;;;;;;;8.86;90.40;100879.69;4986500;28;20042;-77
2023/02/20 04:38:38;;;;;;;0.43;0.43;;;;;;;8.84;90.84;100875.78;5005225;28;20045;-77
2023/02/20 04:41:06;;;;;;;0.32;0.32;;;;;;;8.81;90.67;100871.06;5006449;28;20037;-76
2023/02/20 04:43:31;;;;;;;0.80;0.60;;;;;;;8.82;90.63;100868.06;5006598;28;20131;-77
2023/02/20 04:45:57;;;;;;;0.35;0.35;;;;;;;8.88;90.13;100877.44;5007402;28;20042;-77
2023/02/20 04:48:23;;;;;;;0.73;0.60;;;;;;;8.79;90.40;100863.34;5006917;28;20120;-77
2023/02/20 04:50:48;;;;;;;0.43;0.43;;;;;;;8.81;90.48;100849.59;4998688;28;20032;-77
2023/02/20 04:53:15;;;;;;;0.60;0.57;;;;;;;8.77;90.31;100859.44;4990797;28;20080;-76
2023/02/20 04:55:41;;;;;;;0.30;0.30;;;;;;;8.72;90.97;100846.25;5008142;28;20034;-76
2023/02/20 04:58:11;;;;;;;1.75;1.02;;;;;;;8.81;90.64;100836.16;4993395;28;20042;-77
2023/02/20 05:00:49;;;;;;;1.00;1.00;;;;;;;8.75;90.88;100835.63;5000590;28;20019;-78
2023/02/20 05:03:14;;;;;;;1.38;1.00;;;;;;;8.69;91.26;100831.59;5005743;28;20150;-77
2023/02/20 05:05:40;;;;;;;0.60;0.60;;;;;;;8.80;90.83;100826.56;4985572;28;20030;-79
2023/02/20 05:08:07;;;;;;;0.25;0.25;;;;;;;8.69;91.70;100834.28;4988658;28;20136;-77
2023/02/20 05:10:34;;;;;;;0.65;0.45;;;;;;;8.43;92.63;100852.63;5006893;28;20040;-76
2023/02/20 05:13:00;;;;;;;0.30;0.30;;;;;;;8.57;92.37;100858.47;4996098;28;20046;-77
2023/02/20 05:15:28;;;;;;;0.52;0.52;;;;;;;8.72;91.94;100860.47;5009925;28;20109;-76
2023/02/20 05:17:53;;;;;;;1.50;0.93;;;;;;;8.70;91.54;100859.22;4993299;28;20041;-77
2023/02/20 05:20:19;;;;;;;1.00;0.93;;;;;;;8.74;91.41;100841.31;5005329;28;20641;-77
2023/02/20 05:22:46;;;;;;;0.85;0.57;;;;;;;8.71;91.91;100837.41;5009772;28;20476;-77
2023/02/20 05:25:12;;;;;;;2.47;0.60;;;;;;;8.80;91.19;100827.34;5010374;28;20399;-77
2023/02/20 05:27:38;;;;;;;0.28;0.28;;;;;;;8.80;91.56;100826.56;5005911;28;20415;-77
2023/02/20 05:30:05;;;;;;;0.95;0.80;;;;;;;8.92;90.43;100816.56;4984345;28;20110;-77
2023/02/20 05:32:31;;;;;;;0.60;0.45;;;;;;;8.63;91.66;100824.13;5004998;28;20044;-77
2023/02/20 05:34:57;;;;;;;0.95;0.38;;;;;;;8.65;92.33;100800.41;4989136;28;20393;-77
2023/02/20 05:37:25;;;;;;;0.45;0.45;;;;;;;8.72;91.89;100805.97;4995084;28;20096;-77
2023/02/20 05:39:50;;;;;;;1.00;0.50;;;;;;;8.80;91.14;100795.13;4989786;28;20504;-77
2023/02/20 05:42:16;;;;;;;0.30;0.30;;;;;;;8.68;91.82;100800.50;4989485;28;20019;-76
2023/02/20 05:44:42;;;;;;;1.95;0.70;;;;;;;8.76;91.93;100782.72;4997379;28;20632;-77
2023/02/20 05:47:08;;;;;;;0.30;0.30;;;;;;;8.75;91.78;100771.19;4989976;28;20092;-77
2023/02/20 05:49:34;;;;;;;0.73;0.60;;;;;;;8.79;91.63;100779.34;4997594;28;20488;-77
2023/02/20 05:52:01;;;;;;;1.00;0.98;;;;;;;8.92;91.54;100778.19;5005734;28;20125;-77
2023/02/20 05:54:26;;;;;;;1.58;1.48;;;;;;;8.94;91.56;100765.97;5011021;28;20088;-77
2023/02/20 05:56:52;;;;;;;1.98;1.13;;;;;;;9.01;91.03;100755.44;5010199;28;20033;-77
2023/02/20 05:59:20;;;;;;;1.48;1.20;;;;;;;9.03;90.72;100749.72;5007894;28;20469;-77
2023/02/20 06:01:46;;;;;;;2.40;0.70;;;;;;;9.08;90.71;100755.63;4992407;28;20058;-77
2023/02/20 06:04:12;;;;;;;1.77;1.67;;;;;;;8.97;91.62;100762.63;5010978;28;20101;-77
2023/02/20 06:06:40;;;;;;;0.65;0.65;;;;;;;8.89;91.56;100754.69;5013712;28;20084;-77
2023/02/20 06:09:07;;;;;;;1.30;0.88;;;;;;;9.01;91.31;100752.75;5010199;28;20131;-76
2023/02/20 06:11:33;;;;;;;1.00;0.40;;;;;;;9.01;90.70;100743.91;5007100;28;20038;-76
2023/02/20 06:13:59;;;;;;;0.77;0.75;;;;;;;8.99;91.46;100732.72;4992943;28;20113;-77
2023/02/20 06:16:27;;;;;;;0.88;0.52;;;;;;;9.08;90.36;100720.72;5011265;28;20034;-77
2023/02/20 06:18:53;;;;;;;1.08;0.70;;;;;;;8.95;91.58;100727.28;5012253;28;20030;-76
2023/02/20 06:21:22;;;;;;;0.55;0.55;;;;;;;9.04;91.10;100717.16;5003317;28;20030;-77
2023/02/20 06:23:48;;;;;;;1.55;1.45;;;;;;;8.99;91.85;100709.34;5000002;28;20084;-77
2023/02/20 06:26:15;;;;;;;0.80;0.60;;;;;;;8.98;91.56;100705.09;4989341;28;20443;-77
2023/02/20 06:28:41;;;;;;;1.50;0.85;;;;;;;9.06;91.15;100711.44;5010072;28;20105;-76
2023/02/20 06:31:08;;;;;;;1.05;0.98;;;;;;;8.91;91.74;100699.53;5011299;28;20507;-76
2023/02/20 06:33:33;;;;;;;0.50;0.50;;;;;;;9.00;91.84;100699.41;4996371;28;20030;-77
2023/02/20 06:35:59;;;;;;;2.78;1.65;;;;;;;8.93;91.95;100707.25;4994701;28;20128;-76
2023/02/20 06:38:26;;;;;;;0.55;0.52;;;;;;;8.97;92.31;100708.91;4987635;28;20041;-76
2023/02/20 06:40:51;;;;;;;1.63;1.05;;;;;;;8.89;92.30;100707.16;4987308;28;20121;-77
2023/02/20 06:43:17;;;;;;;0.35;0.35;;;;;;;8.99;92.01;100730.84;5007548;28;20160;-76
2023/02/20 06:45:43;;;;;;;0.50;0.50;;;;;;;9.00;91.74;100724.34;4989342;28;20890;-76
2023/02/20 06:48:09;;;;;;;1.05;0.82;;;;;;;8.99;92.11;100722.78;4996234;28;20065;-76
2023/02/20 06:50:34;;;;;;;0.90;0.90;;;;;;;9.10;91.52;100723.06;5007946;28;20028;-76
2023/02/20 06:53:00;;;;;;;0.52;0.52;;;;;;;9.01;92.43;100725.91;5008694;28;20042;-76
2023/02/20 06:55:25;;;;;;;0.43;0.35;;;;;;;9.07;92.02;100729.13;4989127;28;20022;-76
2023/02/20 06:57:51;;;;;;;3.90;1.73;;;;;;;9.19;91.57;100729.06;5008649;28;20038;-77
2023/02/20 07:00:17;;;;;;;0.45;0.43;;;;;;;9.16;91.45;100727.06;4995989;28;20058;-76
2023/02/20 07:02:43;;;;;;;2.83;1.02;;;;;;;9.10;92.38;100723.06;4994114;28;20906;-76
2023/02/20 07:05:10;;;;;;;5.88;1.42;;;;;;;8.94;93.62;100714.94;5003480;28;20037;-75
2023/02/20 07:07:35;;;;;;;2.92;1.40;;;;;;;9.14;92.29;100701.69;4988938;28;20452;-76
2023/02/20 07:10:01;;;;;;;3.05;1.48;;;;;;;9.14;92.55;100709.75;5006563;28;20053;-77
2023/02/20 07:12:30;;;;;;;1.02;1.00;;;;;;;9.20;92.45;100716.41;5010750;28;20400;-77
2023/02/20 07:14:55;;;;;;;1.10;0.55;;;;;;;8.67;95.08;100728.38;4992614;28;20064;-76
2023/02/20 07:17:21;;;;;;;0.70;0.70;;;;;;;8.71;95.61;100719.28;5005341;28;20460;-76
2023/02/20 07:19:46;;;;;;;0.85;0.80;;;;;;;8.97;94.63;100729.59;5006574;28;20417;-77
2023/02/20 07:22:12;;;;;;;2.35;1.77;;;;;;;9.20;93.30;100738.69;5008242;28;20034;-76
2023/02/20 07:24:40;;;;;;;1.38;1.15;;;;;;;9.31;93.15;100722.88;4992992;28;20133;-77
2023/02/20 07:27:06;;;;;;;0.63;0.63;;;;;;;8.97;94.88;100740.34;5004415;28;20571;-76
2023/02/20 07:29:31;;;;;;;2.80;1.65;;;;;;;9.34;93.31;100739.06;5010588;28;20034;-77
2023/02/20 07:31:57;;;;;;;2.47;1.38;;;;;;;9.45;93.18;100723.22;5010928;28;20069;-77
2023/02/20 07:34:22;;;;;;;2.00;1.48;;;;;;;9.45;92.37;100720.53;5005574;28;20163;-76
2023/02/20 07:36:48;;;;;;;1.08;0.75;;;;;;;9.53;92.66;100714.22;5010946;28;20034;-76
2023/02/20 07:39:13;;;;;;;2.08;1.55;;;;;;;9.36;93.15;100727.97;4997213;28;20064;-76
2023/02/20 07:41:39;;;;;;;2.08;1.30;;;;;;;9.19;94.71;100726.41;4994195;28;20184;-76
2023/02/20 07:44:16;;;;;;;1.33;1.23;;;;;;;9.36;94.05;100717.22;5010354;28;20068;-79
2023/02/20 07:46:42;;;;;;;0.45;0.45;;;;;;;9.15;95.50;100722.81;5009300;28;20061;-76
2023/02/20 07:49:28;;;;;;;2.90;1.25;;;;;;;9.45;94.39;100712.47;5006105;28;20030;-76
2023/02/20 07:51:53;;;;;;;0.65;0.65;;;;;;;9.41;94.55;100716.97;4933296;29;20126;-77
2023/02/20 07:54:19;;;;;;;0.88;0.65;;;;;;;9.34;94.45;100704.13;4930590;29;20138;-76
2023/02/20 07:56:44;;;;;;;0.85;0.73;;;;;;;9.29;95.19;100714.38;4915975;29;20126;-77
2023/02/20 07:59:10;;;;;;;2.58;1.08;;;;;;;9.46;94.72;100700.59;4934309;29;20043;-76
2023/02/20 08:01:35;;;;;;;2.53;1.45;;;;;;;9.45;95.18;100699.81;4935085;29;20101;-77
2023/02/20 08:04:01;;;;;;;2.58;1.13;;;;;;;9.28;96.38;100691.28;4949673;29;20186;-76
2023/02/20 08:06:27;;;;;;;5.00;1.05;;;;;;;9.27;96.33;100697.81;4950126;29;20035;-77
2023/02/20 08:08:53;;;;;;;2.95;1.10;;;;;;;9.46;95.42;100701.38;4932470;29;20043;-77
2023/02/20 08:11:21;;;;;;;1.17;0.98;;;;;;;9.65;94.84;100690.72;4949313;28;20060;-77
2023/02/20 08:13:47;;;;;;;0.50;0.50;;;;;;;9.63;94.69;100694.88;4916075;29;20086;-76
2023/02/20 08:16:12;;;;;;;0.88;0.88;;;;;;;9.59;95.27;100681.34;4925394;29;20035;-76
2023/02/20 08:18:38;;;;;;;1.45;1.35;;;;;;;9.79;93.84;100676.84;4914628;29;20034;-77
2023/02/20 08:21:03;;;;;;;1.13;1.02;;;;;;;9.71;94.44;100685.88;4924544;29;20057;-76
2023/02/20 08:23:29;;;;;;;2.95;1.85;;;;;;;9.77;94.37;100698.72;4901218;29;20102;-76
2023/02/20 08:25:54;;;;;;;1.95;1.63;;;;;;;9.79;94.41;100692.97;4928758;29;20031;-77
2023/02/20 08:28:20;;;;;;;2.45;2.25;;;;;;;9.46;96.45;100692.53;4951056;28;20042;-77
2023/02/20 08:30:46;;;;;;;3.50;1.58;;;;;;;9.55;96.54;100685.88;5002169;28;20458;-76
2023/02/20 08:33:12;;;;;;;1.98;1.00;;;;;;;9.73;95.37;100681.72;5006678;28;20061;-76
2023/02/20 08:35:38;;;;;;;2.97;1.70;;;;;;;9.79;94.98;100663.41;5023538;28;20040;-77
2023/02/20 08:38:05;;;;;;;1.05;1.02;;;;;;;9.91;94.58;100660.59;4998731;28;20018;-76
2023/02/20 08:40:31;;;;;;;2.97;1.67;;;;;;;9.75;95.39;100659.84;5002825;28;20072;-76
2023/02/20 08:42:57;;;;;;;1.65;1.00;;;;;;;9.54;97.05;100653.97;5003407;28;20473;-77
2023/02/20 08:45:23;;;;;;;2.88;1.17;;;;;;;9.52;97.32;100656.22;4976662;28;20038;-77
2023/02/20 08:48:10;;;;;;;5.13;2.42;;;;;;;9.64;97.41;100650.75;5006758;28;20049;-77
2023/02/20 08:50:35;;;;;;;3.05;0.70;;;;;;;9.51;97.68;100641.97;4979809;28;20045;-77
2023/02/20 08:53:21;;;;;;;2.40;1.33;;;;;;;9.76;97.10;100645.25;4972879;28;20140;-77
2023/02/20 08:56:07;;;;;;;3.08;1.77;;;;;;;9.65;97.44;100633.47;4935026;29;20158;-77
2023/02/20 08:58:32;;;;;;;2.08;1.10;;;;;;;9.68;97.58;100654.28;4907007;29;20052;-77
2023/02/20 09:00:58;;;;;;;1.60;1.50;;;;;;;9.60;97.45;100647.94;4897466;29;20051;-76
2023/02/20 09:03:24;;;;;;;0.98;0.90;;;;;;;9.77;97.63;100639.53;4891667;29;20040;-76
2023/02/20 09:05:50;;;;;;;1.98;1.60;;;;;;;9.70;97.71;100635.88;4873781;29;20040;-76
2023/02/20 09:08:15;;;;;;;1.17;0.52;;;;;;;9.88;97.12;100629.00;4905661;29;20099;-77
2023/02/20 09:10:41;;;;;;;1.30;1.17;;;;;;;9.94;97.01;100616.84;4920451;29;20079;-77
2023/02/20 09:13:06;;;;;;;1.02;0.77;;;;;;;9.78;98.25;100616.88;4914688;29;20087;-77
2023/02/20 09:15:37;;;;;;;2.13;0.60;;;;;;;9.73;99.80;100603.72;4909286;29;20052;-76
2023/02/20 09:18:04;;;;;;;0.60;0.60;;;;;;;9.85;99.24;100603.59;4893376;29;20040;-77
2023/02/20 09:20:29;;;;;;;1.48;1.25;;;;;;;9.71;100.00;100594.44;4901087;29;20123;-76
2023/02/20 09:22:57;;;;;;;0.80;0.80;;;;;;;9.68;100.00;100584.38;4909333;29;20155;-77
2023/02/20 09:25:22;;;;;;;1.13;0.93;;;;;;;9.80;100.00;100592.31;4912656;29;20108;-77
2023/02/20 09:27:48;;;;;;;2.78;1.98;;;;;;;9.75;100.00;100598.00;4906010;29;20051;-77
2023/02/20 09:30:18;;;;;;;1.42;1.33;;;;;;;9.85;100.00;100586.69;4944403;28;20043;-77
2023/02/20 09:32:45;;;;;;;2.72;1.25;;;;;;;9.77;100.00;100590.34;4956675;28;20046;-77
2023/02/20 09:35:17;;;;;;;3.17;1.95;;;;;;;9.78;100.00;100587.31;4955869;28;20036;-81
2023/02/20 09:37:43;;;;;;;;;;;;;;;9.83;100.00;100591.66;5004567;28;20397;-77
2023/02/20 09:40:12;;;;;;;1.00;1.00;;;;;;;9.73;100.00;100600.25;5000679;28;19948;-76
2023/02/20 09:43:06;;;;;;;1.05;1.02;;;;;;;9.66;100.00;100598.16;4999712;28;20037;-77
2023/02/20 09:45:35;;;;;;;2.92;0.90;;;;;;;9.89;100.00;100592.94;5002782;28;20030;-77
2023/02/20 09:48:08;;;;;;;0.70;0.70;;;;;;;9.86;100.00;100577.47;5002436;28;20319;-77
2023/02/20 09:50:41;;;;;;;1.30;1.10;;;;;;;10.02;100.00;100576.31;5006280;28;20389;-78
2023/02/20 09:53:18;;;;;;;1.65;0.98;;;;;;;10.02;100.00;100579.00;5009809;28;20382;-76
2023/02/20 09:55:44;;;;;;;0.88;0.88;;;;;;;9.82;100.00;100576.63;5005364;28;20556;-77
2023/02/20 09:58:43;;;;;;;1.58;1.17;;;;;;;9.73;100.00;100582.22;4997588;28;20038;-77
2023/02/20 10:01:13;;;;;;;0.98;0.50;;;;;;;9.94;100.00;100557.69;4984386;28;20030;-76
2023/02/20 10:03:53;;;;;;;1.88;0.73;;;;;;;9.96;100.00;100563.50;4999991;28;20407;-77
2023/02/20 10:06:22;;;;;;;1.52;1.00;;;;;;;9.69;100.00;100569.81;4996968;28;20057;-76
2023/02/20 10:08:49;;;;;;;1.92;1.20;;;;;;;9.71;100.00;100559.50;5014160;28;20038;-75
2023/02/20 10:11:32;;;;;;;1.60;1.25;;;;;;;9.88;100.00;100559.09;4985316;28;20053;-76
2023/02/20 10:14:29;;;;;;;1.52;1.20;;;;;;;9.69;100.00;100561.75;4985914;28;20412;-77
2023/02/20 10:17:29;;;;;;;3.38;1.08;;;;;;;9.84;100.00;100564.41;4997640;28;20498;-76
2023/02/20 10:20:10;;;;;;;3.83;1.63;;;;;;;9.81;100.00;100559.69;4985989;28;20034;-76
2023/02/20 10:22:46;;;;;;;;;;;;;;;9.70;100.00;100563.28;4968051;28;20425;-76
2023/02/20 10:25:40;;;;;;;1.42;0.70;;;;;;;9.99;100.00;100565.47;4970317;28;19914;-76
2023/02/20 10:28:14;;;;;;;1.55;1.00;;;;;;;10.27;100.00;100547.25;4942041;28;20046;-76
2023/02/20 10:30:57;;;;;;;1.08;0.98;;;;;;;10.15;100.00;100547.38;4980441;28;20046;-75
2023/02/20 10:33:41;;;;;;;1.30;1.13;;;;;;;9.89;100.00;100556.03;4968216;28;20093;-75
2023/02/20 10:36:16;;;;;;;1.10;1.00;;;;;;;9.97;100.00;100559.66;4986239;28;20105;-76
2023/02/20 10:38:54;;;;;;;1.30;1.17;;;;;;;9.84;100.00;100564.41;4959335;28;20039;-76
2023/02/20 10:41:30;;;;;;;1.17;1.08;;;;;;;10.24;100.00;100544.50;4965621;28;20437;-76
2023/02/20 10:44:16;;;;;;;1.25;0.77;;;;;;;9.92;100.00;100554.56;4990748;28;20038;-76
2023/02/20 10:46:55;;;;;;;0.75;0.75;;;;;;;10.03;100.00;100555.56;4983071;28;20034;-76
2023/02/20 10:49:29;;;;;;;0.38;0.30;;;;;;;9.97;100.00;100548.91;4987532;28;20031;-76
2023/02/20 10:51:59;;;;;;;0.45;0.43;;;;;;;10.12;100.00;100547.31;4971307;28;20042;-77
2023/02/20 10:54:35;;;;;;;1.10;0.77;;;;;;;10.16;100.00;100546.28;4985921;28;20035;-76
2023/02/20 10:57:13;;;;;;;2.20;0.90;;;;;;;9.82;100.00;100538.97;4988548;28;20108;-76
2023/02/20 10:59:54;;;;;;;0.70;0.70;;;;;;;9.79;100.00;100540.44;5013042;28;20500;-76
2023/02/20 11:02:23;;;;;;;0.90;0.52;;;;;;;10.09;100.00;100559.53;5006256;28;20037;-77
2023/02/20 11:04:57;;;;;;;0.52;0.52;;;;;;;10.21;100.00;100556.75;5008889;28;20037;-76
2023/02/20 11:07:23;;;;;;;1.02;0.73;;;;;;;10.21;100.00;100545.19;4992515;28;20137;-76
2023/02/20 11:09:48;;;;;;;0.88;0.60;;;;;;;10.32;100.00;100549.66;5008634;28;20109;-77
2023/02/20 11:12:26;;;;;;;0.98;0.93;;;;;;;10.23;100.00;100549.09;4998219;28;20037;-76
2023/02/20 11:14:55;;;;;;;1.10;0.60;;;;;;;10.18;100.00;100532.44;5008577;28;20542;-76
2023/02/20 11:17:27;;;;;;;1.17;0.82;;;;;;;10.20;100.00;100549.78;4996672;28;20384;-76
2023/02/20 11:19:59;;;;;;;0.65;0.47;;;;;;;10.43;100.00;100547.16;4994280;28;20025;-76
2023/02/20 11:22:38;;;;;;;1.70;1.13;;;;;;;10.13;100.00;100544.28;4991261;28;20045;-76
2023/02/20 11:25:32;;;;;;;1.05;0.40;;;;;;;10.09;100.00;100542.59;5006174;28;20073;-76
2023/02/20 11:28:19;;;;;;;0.38;0.38;;;;;;;10.06;100.00;100549.50;4996698;28;20053;-76
2023/02/20 11:30:48;;;;;;;0.30;0.30;;;;;;;9.96;100.00;100544.66;5007659;28;20033;-76
2023/02/20 11:33:23;;;;;;;0.65;0.65;;;;;;;10.21;100.00;100556.75;4991261;28;20490;-76
2023/02/20 11:36:37;;;;;;;0.17;0.17;;;;;;;10.39;100.00;100543.63;5007944;28;20030;-76
2023/02/20 11:39:18;;;;;;;2.15;0.85;;;;;;;10.25;100.00;100541.44;4997879;28;20038;-76
2023/02/20 11:41:44;;;;;;;0.23;0.23;;;;;;;10.39;100.00;100536.34;4999898;28;20033;-76
2023/02/20 11:44:09;;;;;;;0.73;0.52;;;;;;;10.43;100.00;100531.78;4999984;28;20412;-76
2023/02/20 11:46:35;;;;;;;1.30;0.60;;;;;;;10.07;100.00;100536.78;4977925;28;20513;-76
2023/02/20 11:49:10;;;;;;;0.40;0.40;;;;;;;10.50;100.00;100531.13;5004233;28;20046;-76
2023/02/20 11:51:44;;;;;;;2.15;0.80;;;;;;;10.52;100.00;100518.88;5009737;28;20025;-77
2023/02/20 11:54:17;;;;;;;0.32;0.30;;;;;;;10.42;100.00;100519.47;5009037;28;20405;-77
2023/02/20 11:57:05;;;;;;;0.90;0.50;;;;;;;10.62;100.00;100509.44;5009889;28;20129;-77
2023/02/20 11:59:31;;;;;;;0.95;0.60;;;;;;;10.93;100.00;100505.72;5002967;28;20392;-76
2023/02/20 12:02:23;;;;;;;0.80;0.45;;;;;;;11.00;100.00;100512.00;5009540;28;20100;-76